createdAt,value
2023-01-08T00:01:07.946Z,73.65
2023-01-08T00:03:37.252Z,73.59
2023-01-08T00:06:07.151Z,73.37
2023-01-08T00:08:34.708Z,73.79
2023-01-08T00:11:01.540Z,73.73
2023-01-08T00:13:28.577Z,73.79
2023-01-08T00:15:55.341Z,74.11
2023-01-08T00:18:22.176Z,74.20
2023-01-08T00:20:48.924Z,74.25
2023-01-08T00:23:18.318Z,74.39
2023-01-08T00:25:45.042Z,74.41
2023-01-08T00:28:12.077Z,74.64
2023-01-08T00:30:38.798Z,74.63
2023-01-08T00:33:05.529Z,74.54
2023-01-08T00:35:32.323Z,74.72
2023-01-08T00:37:58.996Z,74.87
2023-01-08T00:40:25.828Z,74.93
2023-01-08T00:42:52.446Z,74.94
2023-01-08T00:45:19.046Z,74.94
2023-01-08T00:47:45.735Z,74.55
2023-01-08T00:50:12.677Z,74.51
2023-01-08T00:52:39.421Z,74.83
2023-01-08T00:55:06.967Z,75.31
2023-01-08T00:57:34.918Z,75.68
2023-01-08T01:00:02.175Z,75.78
2023-01-08T01:02:28.872Z,75.63
2023-01-08T01:04:55.579Z,75.89
2023-01-08T01:07:22.327Z,75.74
2023-01-08T01:09:49.026Z,75.76
2023-01-08T01:12:15.755Z,75.52
2023-01-08T01:14:42.598Z,75.68
2023-01-08T01:17:11.205Z,75.61
2023-01-08T01:19:38.046Z,75.65
2023-01-08T01:22:05.810Z,75.70
2023-01-08T01:24:33.264Z,75.62
2023-01-08T01:27:00.115Z,75.78
2023-01-08T01:29:26.910Z,75.78
2023-01-08T01:31:57.069Z,75.73
2023-01-08T01:34:24.039Z,75.70
2023-01-08T01:36:50.757Z,75.70
2023-01-08T01:39:17.546Z,75.65
2023-01-08T01:41:46.024Z,75.75
2023-01-08T01:44:40.832Z,75.71
2023-01-08T01:47:24.206Z,75.90
2023-01-08T01:50:23.084Z,75.88
2023-01-08T01:53:18.088Z,75.60
2023-01-08T01:55:46.114Z,75.70
2023-01-08T01:58:30.247Z,75.80
2023-01-08T02:01:00.004Z,75.92
2023-01-08T02:03:33.321Z,76.03
2023-01-08T02:06:31.063Z,75.96
2023-01-08T02:13:08.237Z,76.31
2023-01-08T02:16:03.045Z,76.08
2023-01-08T02:18:47.808Z,76.27
2023-01-08T02:21:34.559Z,76.12
2023-01-08T02:24:13.541Z,75.92
2023-01-08T02:26:40.973Z,76.35
2023-01-08T02:29:15.312Z,76.32
2023-01-08T02:31:43.708Z,76.16
2023-01-08T02:34:11.764Z,76.15
2023-01-08T02:36:51.070Z,76.24
2023-01-08T02:39:17.718Z,76.20
2023-01-08T02:41:52.580Z,76.26
2023-01-08T02:44:51.054Z,76.82
2023-01-08T02:47:38.169Z,76.56
2023-01-08T02:50:49.969Z,76.47
2023-01-08T02:53:27.483Z,76.53
2023-01-08T02:55:59.302Z,76.42
2023-01-08T02:58:30.125Z,76.24
2023-01-08T03:00:58.737Z,76.55
2023-01-08T03:03:27.797Z,76.71
2023-01-08T03:05:58.338Z,76.29
2023-01-08T03:08:26.180Z,76.22
2023-01-08T03:11:00.865Z,76.27
2023-01-08T03:13:37.609Z,76.42
2023-01-08T03:16:10.621Z,76.04
2023-01-08T03:18:45.765Z,76.05
2023-01-08T03:21:14.021Z,75.90
2023-01-08T03:23:42.910Z,76.04
2023-01-08T03:26:12.169Z,76.20
2023-01-08T03:28:44.430Z,76.20
2023-01-08T03:31:14.166Z,75.72
2023-01-08T03:33:42.003Z,76.14
2023-01-08T03:36:13.911Z,75.94
2023-01-08T03:38:45.124Z,75.96
2023-01-08T03:41:18.963Z,76.11
2023-01-08T03:43:45.669Z,75.85
2023-01-08T03:46:18.976Z,75.88
2023-01-08T03:48:46.789Z,75.83
2023-01-08T03:51:13.553Z,75.64
2023-01-08T03:53:40.310Z,75.82
2023-01-08T03:56:07.446Z,75.68
2023-01-08T03:58:34.799Z,75.59
2023-01-08T04:01:01.546Z,75.77
2023-01-08T04:03:28.251Z,75.74
2023-01-08T04:05:54.952Z,75.90
2023-01-08T04:08:21.591Z,76.10
2023-01-08T04:10:48.219Z,75.76
2023-01-08T04:13:14.889Z,75.98
2023-01-08T04:15:41.652Z,75.91
2023-01-08T04:18:08.387Z,75.78
2023-01-08T04:20:35.091Z,75.98
2023-01-08T04:23:01.800Z,76.08
2023-01-08T04:25:28.500Z,76.46
2023-01-08T04:27:55.291Z,76.61
2023-01-08T04:30:21.943Z,76.58
2023-01-08T04:32:48.715Z,77.38
2023-01-08T04:35:15.526Z,77.36
2023-01-08T04:37:42.232Z,77.19
2023-01-08T04:40:09.717Z,77.42
2023-01-08T04:42:36.416Z,77.48
2023-01-08T04:45:03.274Z,77.25
2023-01-08T04:47:29.971Z,77.28
2023-01-08T04:49:56.647Z,77.12
2023-01-08T04:52:23.383Z,76.86
2023-01-08T04:54:50.047Z,76.78
2023-01-08T04:57:16.812Z,76.98
2023-01-08T04:59:43.512Z,77.13
2023-01-08T05:02:10.284Z,77.16
2023-01-08T05:04:37.090Z,77.28
2023-01-08T05:07:04.636Z,77.09
2023-01-08T05:09:31.382Z,77.26
2023-01-08T05:11:58.113Z,77.16
2023-01-08T05:14:24.797Z,76.84
2023-01-08T05:16:51.429Z,76.89
2023-01-08T05:19:18.157Z,76.82
2023-01-08T05:21:44.858Z,76.95
2023-01-08T05:24:11.595Z,76.63
2023-01-08T05:26:38.257Z,76.55
2023-01-08T05:29:04.823Z,76.60
2023-01-08T05:31:31.583Z,76.80
2023-01-08T05:33:59.606Z,76.51
2023-01-08T05:36:26.709Z,76.45
2023-01-08T05:38:53.588Z,76.64
2023-01-08T05:41:20.294Z,76.48
2023-01-08T05:43:47.002Z,76.47
2023-01-08T05:46:13.851Z,76.85
2023-01-08T05:48:40.581Z,76.34
2023-01-08T05:51:07.289Z,76.44
2023-01-08T05:53:34.101Z,76.62
2023-01-08T05:56:11.831Z,76.43
2023-01-08T05:58:39.277Z,76.49
2023-01-08T06:01:09.008Z,76.70
2023-01-08T06:03:36.080Z,76.80
2023-01-08T06:06:04.867Z,76.56
2023-01-08T06:08:32.300Z,76.54
2023-01-08T06:11:00.959Z,76.56
2023-01-08T06:13:28.150Z,76.54
2023-01-08T06:15:55.067Z,76.59
2023-01-08T06:18:21.772Z,76.79
2023-01-08T06:20:48.442Z,76.95
2023-01-08T06:23:15.155Z,76.87
2023-01-08T06:25:41.850Z,76.79
2023-01-08T06:28:08.524Z,76.65
2023-01-08T06:30:35.308Z,77.07
2023-01-08T06:33:02.717Z,76.86
2023-01-08T06:35:29.505Z,77.26
2023-01-08T06:37:56.535Z,77.21
2023-01-08T06:40:24.137Z,77.23
2023-01-08T06:42:50.915Z,76.80
2023-01-08T06:45:17.766Z,76.95
2023-01-08T06:47:44.327Z,77.19
2023-01-08T06:50:11.741Z,77.17
2023-01-08T06:52:39.077Z,77.38
2023-01-08T06:55:06.542Z,77.23
2023-01-08T06:57:33.365Z,77.22
2023-01-08T07:00:00.192Z,77.36
2023-01-08T07:02:27.002Z,77.35
2023-01-08T07:04:53.832Z,77.32
2023-01-08T07:07:20.466Z,77.19
2023-01-08T07:09:47.057Z,77.05
2023-01-08T07:12:14.512Z,76.98
2023-01-08T07:14:42.064Z,77.21
2023-01-08T07:17:08.760Z,76.69
2023-01-08T07:19:35.559Z,76.70
2023-01-08T07:22:02.410Z,76.47
2023-01-08T07:24:29.268Z,76.31
2023-01-08T07:26:56.445Z,76.95
2023-01-08T07:33:49.369Z,76.73
2023-01-08T07:36:19.529Z,76.63
2023-01-08T07:38:46.266Z,76.57
2023-01-08T07:41:13.430Z,76.53
2023-01-08T07:43:40.142Z,76.59
2023-01-08T07:46:07.030Z,76.53
2023-01-08T07:48:34.131Z,76.38
2023-01-08T07:51:08.250Z,76.41
2023-01-08T07:53:36.748Z,76.27
2023-01-08T07:56:06.042Z,76.30
2023-01-08T07:58:33.096Z,76.18
2023-01-08T08:01:00.424Z,76.41
2023-01-08T08:03:27.181Z,76.35
2023-01-08T08:05:54.468Z,75.88
2023-01-08T08:08:21.485Z,75.86
2023-01-08T08:10:48.143Z,76.08
2023-01-08T08:13:15.337Z,76.12
2023-01-08T08:15:42.202Z,76.07
2023-01-08T08:18:09.454Z,75.98
2023-01-08T08:20:36.715Z,76.08
2023-01-08T08:23:06.472Z,75.81
2023-01-08T08:25:33.490Z,75.99
2023-01-08T08:28:01.469Z,76.01
2023-01-08T08:30:29.812Z,76.13
2023-01-08T08:33:00.367Z,76.36
2023-01-08T08:39:40.396Z,76.35
2023-01-08T08:42:07.266Z,76.13
2023-01-08T08:44:34.151Z,76.19
2023-01-08T08:47:01.167Z,76.19
2023-01-08T08:49:28.038Z,76.09
2023-01-08T08:51:54.695Z,76.20
2023-01-08T08:54:21.404Z,76.33
2023-01-08T08:56:48.436Z,76.47
2023-01-08T08:59:15.139Z,76.92
2023-01-08T09:01:41.894Z,76.52
2023-01-08T09:04:08.749Z,76.61
2023-01-08T09:06:35.415Z,76.28
2023-01-08T09:09:02.231Z,75.98
2023-01-08T09:11:29.097Z,75.76
2023-01-08T09:13:55.804Z,76.13
2023-01-08T09:16:22.583Z,76.03
2023-01-08T09:18:49.572Z,75.94
2023-01-08T09:21:16.239Z,76.12
2023-01-08T09:23:43.084Z,76.30
2023-01-08T09:26:10.335Z,76.22
2023-01-08T09:28:38.198Z,75.50
2023-01-08T09:31:05.228Z,75.72
2023-01-08T09:33:32.402Z,75.38
2023-01-08T09:35:59.145Z,75.26
2023-01-08T09:38:27.673Z,75.54
2023-01-08T09:41:03.696Z,75.50
2023-01-08T09:43:35.147Z,75.47
2023-01-08T09:46:05.569Z,75.56
2023-01-08T09:48:37.096Z,75.44
2023-01-08T09:51:05.331Z,75.19
2023-01-08T09:53:33.520Z,75.11
2023-01-08T09:56:10.235Z,75.16
2023-01-08T09:58:46.813Z,74.58
2023-01-08T10:01:17.096Z,75.04
2023-01-08T10:03:47.606Z,74.96
2023-01-08T10:06:16.233Z,75.40
2023-01-08T10:08:43.256Z,75.26
2023-01-08T10:11:13.154Z,74.66
2023-01-08T10:13:42.277Z,74.85
2023-01-08T10:16:11.405Z,74.86
2023-01-08T10:18:40.809Z,74.84
2023-01-08T10:21:14.402Z,75.06
2023-01-08T10:23:52.570Z,74.82
2023-01-08T10:26:27.653Z,74.88
2023-01-08T10:29:07.415Z,75.12
2023-01-08T10:31:38.511Z,75.11
2023-01-08T10:34:10.628Z,75.00
2023-01-08T10:36:42.463Z,74.88
2023-01-08T10:39:22.864Z,74.90
2023-01-08T10:41:53.814Z,75.05
2023-01-08T10:44:23.247Z,74.76
2023-01-08T10:51:17.249Z,75.08
2023-01-08T10:53:44.435Z,75.19
2023-01-08T10:56:22.140Z,75.16
2023-01-08T10:58:49.219Z,74.96
2023-01-08T11:01:28.693Z,75.06
2023-01-08T11:04:06.289Z,75.16
2023-01-08T11:06:39.626Z,75.21
2023-01-08T11:09:23.563Z,75.36
2023-01-08T11:11:50.282Z,75.99
2023-01-08T11:14:46.228Z,75.79
2023-01-08T11:17:13.192Z,75.36
2023-01-08T11:24:12.998Z,75.68
2023-01-08T11:26:44.580Z,75.55
2023-01-08T11:29:21.064Z,75.76
2023-01-08T11:32:19.638Z,75.56
2023-01-08T11:35:04.484Z,76.12
2023-01-08T11:37:37.463Z,76.04
2023-01-08T11:40:13.816Z,76.27
2023-01-08T11:43:22.065Z,76.18
2023-01-08T11:46:00.021Z,76.15
2023-01-08T11:48:36.126Z,76.12
2023-01-08T11:51:36.661Z,76.11
2023-01-08T11:54:05.934Z,76.21
2023-01-08T11:56:35.291Z,76.34
2023-01-08T11:59:24.799Z,76.57
2023-01-08T12:02:19.687Z,76.47
2023-01-08T12:04:57.524Z,76.38
2023-01-08T12:07:30.176Z,76.61
2023-01-08T12:09:59.571Z,76.59
2023-01-08T12:12:29.127Z,76.55
2023-01-08T12:15:15.627Z,76.54
2023-01-08T12:17:54.278Z,76.63
2023-01-08T12:20:45.688Z,77.07
2023-01-08T12:23:21.514Z,77.14
2023-01-08T12:26:27.080Z,76.92
2023-01-08T12:29:42.092Z,76.88
2023-01-08T12:32:11.866Z,76.38
2023-01-08T12:35:10.915Z,76.75
2023-01-08T12:37:56.341Z,76.51
2023-01-08T12:41:08.279Z,76.85
2023-01-08T12:43:59.342Z,76.91
2023-01-08T12:46:29.435Z,77.21
2023-01-08T12:48:56.719Z,76.98
2023-01-08T12:51:54.469Z,77.14
2023-01-08T12:54:38.166Z,77.55
2023-01-08T12:57:20.940Z,77.03
2023-01-08T12:59:56.958Z,77.20
2023-01-08T13:02:41.831Z,77.46
2023-01-08T13:05:20.778Z,77.30
2023-01-08T13:08:29.720Z,77.17
2023-01-08T13:10:57.177Z,77.00
2023-01-08T13:17:49.362Z,77.36
2023-01-08T13:20:23.438Z,77.31
2023-01-08T13:22:55.933Z,77.35
2023-01-08T13:25:27.747Z,77.27
2023-01-08T13:27:55.434Z,77.32
2023-01-08T13:30:34.436Z,77.47
2023-01-08T13:33:01.950Z,77.32
2023-01-08T13:35:34.530Z,77.46
2023-01-08T13:38:10.237Z,77.13
2023-01-08T13:40:43.051Z,76.78
2023-01-08T13:43:30.393Z,76.96
2023-01-08T13:45:59.972Z,76.88
2023-01-08T13:48:35.228Z,76.83
2023-01-08T13:51:03.134Z,77.01
2023-01-08T13:53:29.972Z,76.86
2023-01-08T13:55:59.688Z,76.52
2023-01-08T13:58:31.076Z,76.66
2023-01-08T14:01:00.847Z,77.03
2023-01-08T14:03:31.252Z,77.09
2023-01-08T14:06:17.720Z,77.20
2023-01-08T14:08:58.517Z,76.87
2023-01-08T14:11:44.027Z,77.00
2023-01-08T14:14:13.466Z,76.95
2023-01-08T14:16:41.543Z,77.03
2023-01-08T14:19:08.820Z,77.08
2023-01-08T14:21:35.661Z,77.13
2023-01-08T14:24:02.402Z,77.28
2023-01-08T14:26:38.887Z,76.94
2023-01-08T14:29:16.883Z,77.55
2023-01-08T14:36:06.585Z,77.14
2023-01-08T14:38:33.401Z,77.51
2023-01-08T14:42:34.273Z,77.20
2023-01-08T14:45:09.085Z,77.18
2023-01-08T14:47:45.104Z,77.12
2023-01-08T14:50:42.725Z,77.24
2023-01-08T14:53:35.410Z,77.34
2023-01-08T14:56:04.904Z,77.05
2023-01-08T14:58:38.352Z,77.10
2023-01-08T15:01:14.692Z,77.33
2023-01-08T15:03:44.088Z,77.18
2023-01-08T15:06:11.636Z,77.03
2023-01-08T15:08:43.443Z,76.83
2023-01-08T15:11:19.323Z,76.97
2023-01-08T15:13:48.384Z,77.27
2023-01-08T15:16:24.103Z,77.23
2023-01-08T15:19:19.409Z,77.47
2023-01-08T15:21:48.398Z,77.56
2023-01-08T15:24:32.443Z,77.35
2023-01-08T15:27:09.640Z,77.82
2023-01-08T15:29:48.880Z,77.34
2023-01-08T15:32:15.586Z,77.58
2023-01-08T15:34:43.822Z,77.59
2023-01-08T15:37:11.312Z,77.82
2023-01-08T15:39:38.163Z,77.91
2023-01-08T15:42:39.209Z,77.83
2023-01-08T15:45:12.918Z,78.17
2023-01-08T15:47:39.607Z,78.04
2023-01-08T15:50:07.052Z,77.92
2023-01-08T15:52:37.251Z,77.91
2023-01-08T15:55:05.009Z,78.19
2023-01-08T15:57:31.830Z,78.12
2023-01-08T15:59:59.200Z,77.73
2023-01-08T16:02:26.367Z,78.01
2023-01-08T16:04:54.570Z,78.08
2023-01-08T16:07:22.455Z,77.92
2023-01-08T16:09:49.225Z,77.82
2023-01-08T16:12:16.060Z,77.93
2023-01-08T16:14:42.830Z,77.82
2023-01-08T16:17:10.209Z,77.73
2023-01-08T16:19:37.014Z,77.35
2023-01-08T16:22:04.808Z,77.67
2023-01-08T16:24:31.762Z,77.32
2023-01-08T16:26:58.436Z,77.16
2023-01-08T16:29:26.053Z,77.03
2023-01-08T16:31:52.822Z,77.65
2023-01-08T16:34:19.803Z,77.73
2023-01-08T16:36:48.385Z,77.65
2023-01-08T16:39:15.179Z,77.51
2023-01-08T16:41:42.158Z,77.39
2023-01-08T16:44:18.867Z,77.27
2023-01-08T16:46:46.769Z,77.48
2023-01-08T16:49:13.876Z,77.75
2023-01-08T16:51:40.890Z,77.63
2023-01-08T16:54:08.137Z,77.63
2023-01-08T16:56:34.911Z,77.31
2023-01-08T16:59:02.836Z,77.59
2023-01-08T17:01:31.008Z,77.48
2023-01-08T17:04:00.342Z,77.36
2023-01-08T17:06:28.738Z,77.53
2023-01-08T17:08:55.494Z,77.51
2023-01-08T17:11:23.935Z,77.41
2023-01-08T17:13:50.699Z,77.54
2023-01-08T17:16:19.757Z,77.61
2023-01-08T17:18:46.687Z,77.41
2023-01-08T17:21:14.719Z,77.55
2023-01-08T17:23:41.668Z,77.75
2023-01-08T17:26:11.210Z,77.84
2023-01-08T17:28:38.120Z,77.65
2023-01-08T17:31:10.828Z,77.77
2023-01-08T17:33:38.073Z,77.84
2023-01-08T17:36:10.863Z,77.51
2023-01-08T17:38:37.679Z,78.01
2023-01-08T17:41:04.858Z,77.78
2023-01-08T17:43:35.706Z,77.69
2023-01-08T17:46:04.093Z,77.67
2023-01-08T17:48:31.337Z,77.52
2023-01-08T17:50:58.058Z,77.54
2023-01-08T17:53:24.865Z,77.73
2023-01-08T17:55:53.762Z,77.83
2023-01-08T17:58:20.913Z,77.83
2023-01-08T18:00:47.645Z,78.01
2023-01-08T18:03:14.352Z,77.67
2023-01-08T18:05:41.132Z,77.77
2023-01-08T18:08:07.862Z,77.57
2023-01-08T18:10:34.612Z,78.16
2023-01-08T18:13:01.466Z,77.93
2023-01-08T18:15:28.405Z,78.19
2023-01-08T18:17:55.147Z,77.74
2023-01-08T18:20:21.987Z,77.87
2023-01-08T18:22:49.042Z,77.76
2023-01-08T18:25:15.876Z,77.40
2023-01-08T18:27:42.908Z,77.86
2023-01-08T18:30:11.136Z,77.67
2023-01-08T18:32:37.895Z,77.71
2023-01-08T18:35:05.455Z,78.05
2023-01-08T18:37:33.279Z,78.42
2023-01-08T18:40:00.254Z,78.71
2023-01-08T18:42:27.069Z,78.85
2023-01-08T18:44:55.695Z,78.79
2023-01-08T18:47:24.129Z,78.88
2023-01-08T18:49:55.084Z,79.14
2023-01-08T18:52:22.926Z,78.83
2023-01-08T18:54:49.795Z,78.99
2023-01-08T18:57:17.039Z,78.95
2023-01-08T18:59:44.019Z,78.81
2023-01-08T19:02:27.289Z,78.61
2023-01-08T19:04:54.098Z,78.62
2023-01-08T19:07:21.136Z,78.31
2023-01-08T19:09:48.142Z,78.42
2023-01-08T19:12:14.900Z,78.58
2023-01-08T19:14:42.440Z,78.67
2023-01-08T19:17:09.122Z,78.58
2023-01-08T19:19:36.284Z,78.96
2023-01-08T19:22:03.287Z,78.86
2023-01-08T19:24:31.287Z,78.62
2023-01-08T19:26:57.968Z,78.34
2023-01-08T19:29:24.704Z,78.40
2023-01-08T19:31:51.521Z,78.37
2023-01-08T19:34:19.277Z,78.56
2023-01-08T19:36:45.954Z,78.89
2023-01-08T19:39:12.701Z,78.50
2023-01-08T19:41:58.498Z,78.74
2023-01-08T19:44:25.502Z,78.51
2023-01-08T19:46:52.283Z,78.63
2023-01-08T19:49:19.134Z,78.60
2023-01-08T19:51:46.815Z,78.78
2023-01-08T19:54:13.653Z,78.67
2023-01-08T19:56:40.418Z,78.87
2023-01-08T19:59:07.176Z,78.78
2023-01-08T20:01:34.089Z,78.60
2023-01-08T20:04:01.248Z,79.18
2023-01-08T20:06:28.287Z,78.68
2023-01-08T20:08:59.198Z,78.79
2023-01-08T20:11:27.011Z,78.82
2023-01-08T20:13:55.660Z,78.82
2023-01-08T20:16:24.040Z,78.99
2023-01-08T20:18:50.779Z,78.73
2023-01-08T20:21:23.161Z,78.69
2023-01-08T20:23:59.573Z,78.79
2023-01-08T20:26:28.630Z,78.87
2023-01-08T20:28:57.185Z,78.74
2023-01-08T20:31:27.342Z,79.31
2023-01-08T20:33:57.155Z,78.86
2023-01-08T20:36:26.202Z,78.93
2023-01-08T20:38:55.689Z,78.78
2023-01-08T20:41:22.546Z,78.59
2023-01-08T20:43:49.347Z,78.48
2023-01-08T20:46:16.291Z,79.10
2023-01-08T20:48:47.683Z,79.08
2023-01-08T20:51:16.050Z,79.19
2023-01-08T20:53:43.040Z,79.09
2023-01-08T20:56:15.096Z,79.43
2023-01-08T20:58:45.264Z,79.02
2023-01-08T21:01:21.404Z,79.49
2023-01-08T21:03:49.861Z,79.51
2023-01-08T21:06:19.892Z,79.58
2023-01-08T21:08:49.513Z,80.15
2023-01-08T21:11:17.314Z,79.90
2023-01-08T21:13:44.148Z,79.83
2023-01-08T21:16:17.532Z,79.73
2023-01-08T21:18:47.331Z,79.95
2023-01-08T21:21:17.248Z,80.06
2023-01-08T21:23:46.155Z,79.65
2023-01-08T21:26:14.608Z,79.85
2023-01-08T21:28:42.152Z,79.91
2023-01-08T21:31:11.773Z,79.46
2023-01-08T21:33:39.071Z,79.62
2023-01-08T21:36:12.304Z,79.51
2023-01-08T21:38:39.133Z,79.65
2023-01-08T21:41:09.587Z,79.25
2023-01-08T21:43:55.229Z,79.67
2023-01-08T21:46:27.855Z,79.77
2023-01-08T21:48:54.593Z,79.51
2023-01-08T21:51:40.103Z,79.35
2023-01-08T21:54:06.808Z,79.23
2023-01-08T21:56:33.568Z,79.34
2023-01-08T21:59:00.314Z,79.38
2023-01-08T22:01:27.221Z,79.32
2023-01-08T22:03:54.648Z,79.70
2023-01-08T22:06:21.351Z,78.94
2023-01-08T22:08:52.700Z,79.07
2023-01-08T22:11:19.840Z,78.86
2023-01-08T22:13:46.573Z,78.64
2023-01-08T22:16:14.224Z,78.80
2023-01-08T22:18:41.022Z,78.78
2023-01-08T22:21:10.707Z,78.77
2023-01-08T22:23:38.504Z,78.56
2023-01-08T22:26:07.090Z,78.63
2023-01-08T22:28:33.850Z,78.93
2023-01-08T22:31:08.145Z,79.05
2023-01-08T22:33:35.724Z,78.88
2023-01-08T22:36:11.706Z,78.94
2023-01-08T22:38:39.557Z,78.79
2023-01-08T22:41:20.022Z,78.68
2023-01-08T22:43:46.653Z,78.51
2023-01-08T22:46:16.123Z,78.66
2023-01-08T22:48:43.873Z,78.87
2023-01-08T22:51:11.587Z,78.52
2023-01-08T22:53:38.385Z,78.82
2023-01-08T22:56:11.999Z,78.51
2023-01-08T22:58:40.467Z,78.29
2023-01-08T23:01:12.796Z,78.62
2023-01-08T23:03:42.974Z,78.65
2023-01-08T23:06:13.794Z,78.52
2023-01-08T23:08:42.900Z,78.41
2023-01-08T23:11:11.994Z,78.36
2023-01-08T23:13:39.064Z,78.45
2023-01-08T23:16:07.911Z,78.36
2023-01-08T23:18:36.072Z,78.49
2023-01-08T23:21:08.164Z,78.34
2023-01-08T23:23:35.005Z,78.55
2023-01-08T23:26:10.946Z,78.70
2023-01-08T23:28:38.150Z,78.51
2023-01-08T23:31:10.507Z,78.90
2023-01-08T23:33:37.282Z,78.46
2023-01-08T23:36:09.004Z,78.44
2023-01-08T23:38:54.232Z,78.37
2023-01-08T23:41:23.245Z,78.38
2023-01-08T23:43:50.341Z,78.61
2023-01-08T23:46:18.012Z,78.76
2023-01-08T23:48:45.475Z,78.63
2023-01-08T23:51:12.230Z,78.71
2023-01-08T23:53:39.007Z,78.63
2023-01-08T23:56:06.297Z,78.62
2023-01-08T23:58:32.998Z,78.74
